createdAt,value
2022-10-12T00:01:00.980Z,5.91
2022-10-12T00:03:27.492Z,5.84
2022-10-12T00:06:04.278Z,5.80
2022-10-12T00:08:31.253Z,5.78
2022-10-12T00:10:58.191Z,5.73
2022-10-12T00:13:24.984Z,5.72
2022-10-12T00:15:51.488Z,5.75
2022-10-12T00:18:18.289Z,5.78
2022-10-12T00:20:45.050Z,5.83
2022-10-12T00:23:11.721Z,5.86
2022-10-12T00:25:40.085Z,5.88
2022-10-12T00:28:07.422Z,5.83
2022-10-12T00:30:34.655Z,5.86
2022-10-12T00:33:01.182Z,5.82
2022-10-12T00:35:30.483Z,5.78
2022-10-12T00:37:56.993Z,5.68
2022-10-12T00:40:23.852Z,5.62
2022-10-12T00:42:50.568Z,5.53
2022-10-12T00:45:17.360Z,5.47
2022-10-12T00:47:56.805Z,5.37
2022-10-12T00:50:29.382Z,5.35
2022-10-12T00:53:00.933Z,5.24
2022-10-12T00:55:31.809Z,5.27
2022-10-12T00:57:59.123Z,5.22
2022-10-12T01:00:26.088Z,5.17
2022-10-12T01:02:54.901Z,5.18
2022-10-12T01:05:22.961Z,5.18
2022-10-12T01:07:49.771Z,5.22
2022-10-12T01:10:16.655Z,5.16
2022-10-12T01:12:44.989Z,5.18
2022-10-12T01:15:12.529Z,5.13
2022-10-12T01:17:57.270Z,5.09
2022-10-12T01:20:23.833Z,5.09
2022-10-12T01:23:21.095Z,5.11
2022-10-12T01:26:14.989Z,5.17
2022-10-12T01:29:08.666Z,5.10
2022-10-12T01:31:49.596Z,5.05
2022-10-12T01:34:42.579Z,5.00
2022-10-12T01:37:18.637Z,4.97
2022-10-12T01:39:53.951Z,4.93
2022-10-12T01:42:26.497Z,4.89
2022-10-12T01:45:03.958Z,4.91
2022-10-12T01:47:31.425Z,4.90
2022-10-12T01:49:58.783Z,4.90
2022-10-12T01:52:41.641Z,4.93
2022-10-12T01:55:19.564Z,4.89
2022-10-12T01:58:00.967Z,4.93
2022-10-12T02:00:32.917Z,4.94
2022-10-12T02:03:14.233Z,4.95
2022-10-12T02:05:59.310Z,4.89
2022-10-12T02:08:34.401Z,4.79
2022-10-12T02:11:06.982Z,4.78
2022-10-12T02:13:38.474Z,4.76
2022-10-12T02:16:10.387Z,4.75
2022-10-12T02:18:42.437Z,4.70
2022-10-12T02:21:13.120Z,4.72
2022-10-12T02:23:40.136Z,4.71
2022-10-12T02:26:08.015Z,4.80
2022-10-12T02:28:37.246Z,4.74
2022-10-12T02:31:28.582Z,4.73
2022-10-12T02:34:04.462Z,4.69
2022-10-12T02:37:08.369Z,4.62
2022-10-12T02:39:45.446Z,4.70
2022-10-12T02:42:15.274Z,4.77
2022-10-12T02:44:43.627Z,4.73
2022-10-12T02:47:11.718Z,4.70
2022-10-12T02:49:40.129Z,4.63
2022-10-12T02:52:07.835Z,4.71
2022-10-12T02:54:34.439Z,4.70
2022-10-12T02:57:00.882Z,4.65
2022-10-12T02:59:27.308Z,4.61
2022-10-12T03:01:54.015Z,4.57
2022-10-12T03:04:20.737Z,4.47
2022-10-12T03:06:47.260Z,4.44
2022-10-12T03:09:14.152Z,4.41
2022-10-12T03:11:43.900Z,4.36
2022-10-12T03:14:12.426Z,4.38
2022-10-12T03:16:39.377Z,4.48
2022-10-12T03:19:05.843Z,4.39
2022-10-12T03:21:32.334Z,4.35
2022-10-12T03:23:58.802Z,4.26
2022-10-12T03:26:25.331Z,4.21
2022-10-12T03:28:51.805Z,4.22
2022-10-12T03:31:18.588Z,4.19
2022-10-12T03:33:45.074Z,4.14
2022-10-12T03:36:11.476Z,4.09
2022-10-12T03:38:38.044Z,4.05
2022-10-12T03:41:06.871Z,4.01
2022-10-12T03:43:34.307Z,4.00
2022-10-12T03:46:00.837Z,4.03
2022-10-12T03:48:27.363Z,4.02
2022-10-12T03:50:53.869Z,4.04
2022-10-12T03:53:21.119Z,4.08
2022-10-12T03:55:47.674Z,4.14
2022-10-12T03:58:14.677Z,4.10
2022-10-12T04:00:41.414Z,4.10
2022-10-12T04:03:07.879Z,4.09
2022-10-12T04:05:34.436Z,4.02
2022-10-12T04:08:00.890Z,4.03
2022-10-12T04:10:27.573Z,4.06
2022-10-12T04:12:54.107Z,4.01
2022-10-12T04:17:47.426Z,3.96
2022-10-12T04:20:14.042Z,3.94
2022-10-12T04:22:40.474Z,3.87
2022-10-12T04:25:07.275Z,3.87
2022-10-12T04:27:33.776Z,3.92
2022-10-12T04:30:00.157Z,3.93
2022-10-12T04:32:29.133Z,3.90
2022-10-12T04:34:55.663Z,3.88
2022-10-12T04:37:22.264Z,3.84
2022-10-12T04:39:48.752Z,3.75
2022-10-12T04:42:15.226Z,3.79
2022-10-12T04:44:41.637Z,3.74
2022-10-12T04:47:08.065Z,3.78
2022-10-12T04:49:34.590Z,3.82
2022-10-12T04:52:01.108Z,3.81
2022-10-12T04:54:27.561Z,3.81
2022-10-12T04:56:54.044Z,3.78
2022-10-12T04:59:20.575Z,3.73
2022-10-12T05:01:47.312Z,3.61
2022-10-12T05:04:13.873Z,3.60
2022-10-12T05:06:40.339Z,3.56
2022-10-12T05:09:06.911Z,3.53
2022-10-12T05:11:33.616Z,3.56
2022-10-12T05:14:00.198Z,3.58
2022-10-12T05:16:26.587Z,3.63
2022-10-12T05:18:53.041Z,3.66
2022-10-12T05:21:19.826Z,3.63
2022-10-12T05:23:50.815Z,3.55
2022-10-12T05:26:17.594Z,3.54
2022-10-12T05:28:44.296Z,3.58
2022-10-12T05:31:11.044Z,3.56
2022-10-12T05:33:37.513Z,3.62
2022-10-12T05:36:04.575Z,3.56
2022-10-12T05:38:31.081Z,3.48
2022-10-12T05:41:00.526Z,3.46
2022-10-12T05:43:28.555Z,3.45
2022-10-12T05:45:55.337Z,3.49
2022-10-12T05:48:21.797Z,3.44
2022-10-12T05:50:48.390Z,3.39
2022-10-12T05:53:15.014Z,3.39
2022-10-12T05:55:58.320Z,3.39
2022-10-12T05:58:26.769Z,3.39
2022-10-12T06:00:53.332Z,3.39
2022-10-12T06:03:25.352Z,3.41
2022-10-12T06:05:52.717Z,3.45
2022-10-12T06:08:19.345Z,3.48
2022-10-12T06:10:49.824Z,3.50
2022-10-12T06:13:17.848Z,3.51
2022-10-12T06:15:48.117Z,3.58
2022-10-12T06:18:15.818Z,3.62
2022-10-12T06:20:49.790Z,3.60
2022-10-12T06:23:17.461Z,3.64
2022-10-12T06:25:47.586Z,3.67
2022-10-12T06:28:15.642Z,3.70
2022-10-12T06:30:42.564Z,3.69
2022-10-12T06:33:09.479Z,3.76
2022-10-12T06:35:36.001Z,3.79
2022-10-12T06:38:02.590Z,3.89
2022-10-12T06:40:29.020Z,3.99
2022-10-12T06:42:58.608Z,3.94
2022-10-12T06:45:26.001Z,4.01
2022-10-12T06:47:52.649Z,4.12
2022-10-12T06:50:19.123Z,4.21
2022-10-12T06:52:47.058Z,4.19
2022-10-12T06:55:13.755Z,4.23
2022-10-12T06:57:40.410Z,4.36
2022-10-12T07:00:08.937Z,4.34
2022-10-12T07:02:35.902Z,4.46
2022-10-12T07:05:03.320Z,4.43
2022-10-12T07:07:31.703Z,4.53
2022-10-12T07:09:58.227Z,4.60
2022-10-12T07:12:24.773Z,4.64
2022-10-12T07:14:51.242Z,4.75
2022-10-12T07:17:17.823Z,4.84
2022-10-12T07:19:44.263Z,4.91
2022-10-12T07:22:10.747Z,4.97
2022-10-12T07:24:37.215Z,5.00
2022-10-12T07:27:06.134Z,5.07
2022-10-12T07:29:33.319Z,5.16
2022-10-12T07:32:00.041Z,5.23
2022-10-12T07:34:27.410Z,5.29
2022-10-12T07:36:59.637Z,5.34
2022-10-12T07:39:26.748Z,5.35
2022-10-12T07:41:54.191Z,5.43
2022-10-12T07:44:22.533Z,5.44
2022-10-12T07:46:49.095Z,5.48
2022-10-12T07:49:16.394Z,5.51
2022-10-12T07:51:43.131Z,5.60
2022-10-12T07:54:10.184Z,5.65
2022-10-12T07:56:36.633Z,5.70
2022-10-12T07:59:04.153Z,5.77
2022-10-12T08:01:31.463Z,5.84
2022-10-12T08:04:01.722Z,5.90
2022-10-12T08:06:31.058Z,5.97
2022-10-12T08:08:58.839Z,6.03
2022-10-12T08:11:25.373Z,6.16
2022-10-12T08:13:51.843Z,6.25
2022-10-12T08:16:20.149Z,6.35
2022-10-12T08:18:46.987Z,6.55
2022-10-12T08:21:15.535Z,6.73
2022-10-12T08:23:44.561Z,6.83
2022-10-12T08:26:11.741Z,6.87
2022-10-12T08:28:38.288Z,7.00
2022-10-12T08:31:09.857Z,7.12
2022-10-12T08:33:36.697Z,7.22
2022-10-12T08:36:04.875Z,7.45
2022-10-12T08:38:31.511Z,7.46
2022-10-12T08:41:17.421Z,7.65
2022-10-12T08:44:31.619Z,7.77
2022-10-12T08:47:04.794Z,8.31
2022-10-12T08:49:32.077Z,8.44
2022-10-12T08:52:03.314Z,8.64
2022-10-12T08:54:35.495Z,8.65
2022-10-12T08:57:01.986Z,8.74
2022-10-12T08:59:29.535Z,8.92
2022-10-12T09:02:01.805Z,8.92
2022-10-12T09:04:58.662Z,9.39
2022-10-12T09:07:49.098Z,9.49
2022-10-12T09:10:35.303Z,9.51
2022-10-12T09:13:16.932Z,9.68
2022-10-12T09:15:56.685Z,10.00
2022-10-12T09:18:40.875Z,10.04
2022-10-12T09:21:17.981Z,10.17
2022-10-12T09:23:44.808Z,10.19
2022-10-12T09:26:42.132Z,10.54
2022-10-12T09:29:29.852Z,10.37
2022-10-12T09:31:56.805Z,10.36
2022-10-12T09:34:24.357Z,10.54
2022-10-12T09:36:51.249Z,10.65
2022-10-12T09:39:28.964Z,10.74
2022-10-12T09:41:56.245Z,10.85
2022-10-12T09:44:33.541Z,10.86
2022-10-12T09:47:02.593Z,10.97
2022-10-12T09:49:50.314Z,10.97
2022-10-12T09:52:20.315Z,11.02
2022-10-12T09:54:51.105Z,11.32
2022-10-12T09:57:23.625Z,11.55
2022-10-12T09:59:51.336Z,11.47
2022-10-12T10:02:19.711Z,11.48
2022-10-12T10:04:48.402Z,11.54
2022-10-12T10:07:30.697Z,11.95
2022-10-12T10:10:15.605Z,12.09
2022-10-12T10:12:58.845Z,12.01
2022-10-12T10:15:32.242Z,12.10
2022-10-12T10:18:04.801Z,12.48
2022-10-12T10:20:42.845Z,12.55
2022-10-12T10:23:24.633Z,12.70
2022-10-12T10:26:05.797Z,12.88
2022-10-12T10:28:37.912Z,12.86
2022-10-12T10:31:27.727Z,13.05
2022-10-12T10:34:09.793Z,13.19
2022-10-12T10:36:52.013Z,13.25
2022-10-12T10:39:23.052Z,13.19
2022-10-12T10:41:50.576Z,13.32
2022-10-12T10:44:30.438Z,13.14
2022-10-12T10:47:09.665Z,13.07
2022-10-12T10:49:50.806Z,13.18
2022-10-12T10:52:20.274Z,13.14
2022-10-12T10:54:46.887Z,13.33
2022-10-12T10:57:20.418Z,13.70
2022-10-12T10:59:52.637Z,13.69
2022-10-12T11:02:27.397Z,13.85
2022-10-12T11:05:20.361Z,13.82
2022-10-12T11:08:19.469Z,13.89
2022-10-12T11:11:04.027Z,14.12
2022-10-12T11:13:41.769Z,14.29
2022-10-12T11:16:17.069Z,14.26
2022-10-12T11:18:53.562Z,14.40
2022-10-12T11:21:43.106Z,14.45
2022-10-12T11:24:25.058Z,14.45
2022-10-12T11:26:57.469Z,14.33
2022-10-12T11:29:24.197Z,14.59
2022-10-12T11:32:31.852Z,14.58
2022-10-12T11:35:03.013Z,14.58
2022-10-12T11:37:42.712Z,14.72
2022-10-12T11:40:27.052Z,14.65
2022-10-12T11:43:12.167Z,14.72
2022-10-12T11:45:43.126Z,14.77
2022-10-12T11:48:19.706Z,14.78
2022-10-12T11:50:50.487Z,14.75
2022-10-12T11:53:27.686Z,14.72
2022-10-12T11:56:12.739Z,14.90
2022-10-12T11:58:59.934Z,14.89
2022-10-12T12:01:53.703Z,14.80
2022-10-12T12:04:45.006Z,14.94
2022-10-12T12:07:30.304Z,14.76
2022-10-12T12:09:56.759Z,14.65
2022-10-12T12:12:28.608Z,14.76
2022-10-12T12:14:55.041Z,14.85
2022-10-12T12:17:28.037Z,15.01
2022-10-12T12:19:59.615Z,14.94
2022-10-12T12:22:30.306Z,15.08
2022-10-12T12:25:04.460Z,15.11
2022-10-12T12:27:31.605Z,15.09
2022-10-12T12:30:00.605Z,15.24
2022-10-12T12:32:46.031Z,15.27
2022-10-12T12:35:40.190Z,15.19
2022-10-12T12:38:12.372Z,15.13
2022-10-12T12:40:53.523Z,14.90
2022-10-12T12:43:29.049Z,14.81
2022-10-12T12:46:23.167Z,14.68
2022-10-12T12:48:49.572Z,14.60
2022-10-12T12:51:35.767Z,14.54
2022-10-12T12:54:06.421Z,14.82
2022-10-12T12:56:51.356Z,15.01
2022-10-12T12:59:52.087Z,15.27
2022-10-12T13:02:48.043Z,15.40
2022-10-12T13:05:55.335Z,15.57
2022-10-12T13:08:24.701Z,15.66
2022-10-12T13:11:22.099Z,15.53
2022-10-12T13:14:33.986Z,15.56
2022-10-12T13:17:35.654Z,15.69
2022-10-12T13:20:19.659Z,15.79
2022-10-12T13:22:47.999Z,15.75
2022-10-12T13:25:36.564Z,15.64
2022-10-12T13:28:07.553Z,15.66
2022-10-12T13:30:51.682Z,15.71
2022-10-12T13:33:31.404Z,15.74
2022-10-12T13:36:05.633Z,15.72
2022-10-12T13:38:35.086Z,15.79
2022-10-12T13:41:07.791Z,15.71
2022-10-12T13:43:43.591Z,15.75
2022-10-12T13:46:15.220Z,15.80
2022-10-12T13:48:59.337Z,15.83
2022-10-12T13:51:30.126Z,15.68
2022-10-12T13:53:57.770Z,15.69
2022-10-12T13:56:27.998Z,15.60
2022-10-12T13:59:05.331Z,15.63
2022-10-12T14:01:47.686Z,15.61
2022-10-12T14:04:14.345Z,15.52
2022-10-12T14:06:40.911Z,15.59
2022-10-12T14:09:19.737Z,15.56
2022-10-12T14:11:47.322Z,15.55
2022-10-12T14:14:37.390Z,15.44
2022-10-12T14:17:04.145Z,15.47
2022-10-12T14:19:53.164Z,15.36
2022-10-12T14:22:37.908Z,15.32
2022-10-12T14:25:36.285Z,15.27
2022-10-12T14:28:06.709Z,15.36
2022-10-12T14:30:33.138Z,15.39
2022-10-12T14:33:16.438Z,15.35
2022-10-12T14:35:48.077Z,15.59
2022-10-12T14:38:39.591Z,15.36
2022-10-12T14:41:33.112Z,15.27
2022-10-12T14:44:20.207Z,15.25
2022-10-12T14:47:02.890Z,15.23
2022-10-12T14:49:40.891Z,15.23
2022-10-12T14:52:18.105Z,15.15
2022-10-12T14:54:44.608Z,15.10
2022-10-12T14:57:16.167Z,15.14
2022-10-12T14:59:43.017Z,15.06
2022-10-12T15:02:19.595Z,14.99
2022-10-12T15:04:47.082Z,14.93
2022-10-12T15:07:25.859Z,14.90
2022-10-12T15:09:52.617Z,14.84
2022-10-12T15:12:22.225Z,14.77
2022-10-12T15:14:50.185Z,14.75
2022-10-12T15:17:18.965Z,14.68
2022-10-12T15:19:47.692Z,14.61
2022-10-12T15:22:17.149Z,14.53
2022-10-12T15:24:44.182Z,14.49
2022-10-12T15:27:11.063Z,14.43
2022-10-12T15:29:37.919Z,14.62
2022-10-12T15:32:05.777Z,14.59
2022-10-12T15:34:32.213Z,14.46
2022-10-12T15:36:58.825Z,14.51
2022-10-12T15:39:25.477Z,14.34
2022-10-12T15:41:51.908Z,14.28
2022-10-12T15:44:18.588Z,14.17
2022-10-12T15:46:45.334Z,14.05
2022-10-12T15:49:14.147Z,14.00
2022-10-12T15:51:47.504Z,14.11
2022-10-12T15:54:14.593Z,14.08
2022-10-12T15:56:41.682Z,13.96
2022-10-12T15:59:08.619Z,13.85
2022-10-12T16:01:36.663Z,13.80
2022-10-12T16:04:05.665Z,13.72
2022-10-12T16:06:32.903Z,13.64
2022-10-12T16:08:59.398Z,13.68
2022-10-12T16:11:25.952Z,13.74
2022-10-12T16:13:56.536Z,13.66
2022-10-12T16:16:24.224Z,13.50
2022-10-12T16:18:53.731Z,13.33
2022-10-12T16:21:20.518Z,13.29
2022-10-12T16:23:47.081Z,13.36
2022-10-12T16:26:14.830Z,13.16
2022-10-12T16:28:41.911Z,12.95
2022-10-12T16:31:15.782Z,12.77
2022-10-12T16:33:42.845Z,12.64
2022-10-12T16:36:14.906Z,12.54
2022-10-12T16:38:42.966Z,12.45
2022-10-12T16:41:14.345Z,12.34
2022-10-12T16:43:40.932Z,12.22
2022-10-12T16:46:08.466Z,12.14
2022-10-12T16:48:35.389Z,12.04
2022-10-12T16:51:07.894Z,11.96
2022-10-12T16:53:34.929Z,11.85
2022-10-12T16:56:02.262Z,11.78
2022-10-12T16:58:28.762Z,11.69
2022-10-12T17:00:55.658Z,11.61
2022-10-12T17:03:22.105Z,11.58
2022-10-12T17:05:57.654Z,11.53
2022-10-12T17:08:24.125Z,11.45
2022-10-12T17:10:50.761Z,11.40
2022-10-12T17:13:17.263Z,11.32
2022-10-12T17:15:43.772Z,11.24
2022-10-12T17:18:10.339Z,11.22
2022-10-12T17:20:36.932Z,11.20
2022-10-12T17:23:03.494Z,11.11
2022-10-12T17:25:30.018Z,11.02
2022-10-12T17:27:56.480Z,10.94
2022-10-12T17:30:23.168Z,10.88
2022-10-12T17:32:49.709Z,10.78
2022-10-12T17:35:16.251Z,10.72
2022-10-12T17:37:42.946Z,10.64
2022-10-12T17:40:10.601Z,10.53
2022-10-12T17:42:37.466Z,10.38
2022-10-12T17:45:04.390Z,10.23
2022-10-12T17:47:30.877Z,10.13
2022-10-12T17:49:57.272Z,10.04
2022-10-12T17:52:23.808Z,9.93
2022-10-12T17:54:50.394Z,9.85
2022-10-12T17:57:17.311Z,9.75
2022-10-12T17:59:44.025Z,9.68
2022-10-12T18:02:10.779Z,9.63
2022-10-12T18:04:37.197Z,9.58
2022-10-12T18:07:03.676Z,9.52
2022-10-12T18:09:31.034Z,9.48
2022-10-12T18:11:57.476Z,9.44
2022-10-12T18:14:23.967Z,9.37
2022-10-12T18:16:50.630Z,9.30
2022-10-12T18:19:17.194Z,9.22
2022-10-12T18:21:44.069Z,9.18
2022-10-12T18:24:16.095Z,9.18
2022-10-12T18:26:47.420Z,9.13
2022-10-12T18:29:17.510Z,9.08
2022-10-12T18:31:44.078Z,9.04
2022-10-12T18:34:10.615Z,9.00
2022-10-12T18:36:37.490Z,8.93
2022-10-12T18:39:04.605Z,8.88
2022-10-12T18:41:32.300Z,8.84
2022-10-12T18:44:00.565Z,8.77
2022-10-12T18:46:31.610Z,8.73
2022-10-12T18:48:58.542Z,8.66
2022-10-12T18:51:34.241Z,8.62
2022-10-12T18:54:01.933Z,8.59
2022-10-12T18:56:29.726Z,8.56
2022-10-12T18:58:59.553Z,8.55
2022-10-12T19:01:28.098Z,8.50
2022-10-12T19:03:56.202Z,8.45
2022-10-12T19:06:25.327Z,8.45
2022-10-12T19:08:52.391Z,8.39
2022-10-12T19:11:21.158Z,8.35
2022-10-12T19:13:55.089Z,8.29
2022-10-12T19:16:22.550Z,8.28
2022-10-12T19:18:49.790Z,8.26
2022-10-12T19:21:18.500Z,8.24
2022-10-12T19:23:45.409Z,8.23
2022-10-12T19:26:15.277Z,8.21
2022-10-12T19:28:41.987Z,8.16
2022-10-12T19:31:11.218Z,8.18
2022-10-12T19:33:37.737Z,8.19
2022-10-12T19:36:06.026Z,8.20
2022-10-12T19:38:32.760Z,8.20
2022-10-12T19:40:59.491Z,8.22
2022-10-12T19:43:26.192Z,8.24
2022-10-12T19:45:52.736Z,8.21
2022-10-12T19:48:19.578Z,8.22
2022-10-12T19:50:46.241Z,8.23
2022-10-12T19:53:12.825Z,8.21
2022-10-12T19:55:39.683Z,8.23
2022-10-12T19:58:09.755Z,8.23
2022-10-12T20:00:36.971Z,8.25
2022-10-12T20:03:04.715Z,8.52
2022-10-12T20:05:31.162Z,8.34
2022-10-12T20:07:58.234Z,8.34
2022-10-12T20:10:24.827Z,8.34
2022-10-12T20:12:51.718Z,8.29
2022-10-12T20:15:18.211Z,8.27
2022-10-12T20:17:44.794Z,8.29
2022-10-12T20:20:11.404Z,8.27
2022-10-12T20:22:37.958Z,8.28
2022-10-12T20:25:09.432Z,8.25
2022-10-12T20:27:36.797Z,8.26
2022-10-12T20:30:04.779Z,8.26
2022-10-12T20:32:31.563Z,8.19
2022-10-12T20:34:57.986Z,8.17
2022-10-12T20:37:24.498Z,8.13
2022-10-12T20:39:52.448Z,8.12
2022-10-12T20:42:21.968Z,8.03
2022-10-12T20:44:49.629Z,8.07
2022-10-12T20:47:17.569Z,8.04
2022-10-12T20:49:44.612Z,8.00
2022-10-12T20:52:11.321Z,7.98
2022-10-12T20:54:38.225Z,8.01
2022-10-12T20:57:05.014Z,7.97
2022-10-12T20:59:34.374Z,7.93
2022-10-12T21:02:00.800Z,7.86
2022-10-12T21:04:30.495Z,7.84
2022-10-12T21:06:58.207Z,7.87
2022-10-12T21:09:24.670Z,7.86
2022-10-12T21:11:51.214Z,7.87
2022-10-12T21:14:17.703Z,7.88
2022-10-12T21:16:44.151Z,7.82
2022-10-12T21:19:15.421Z,7.75
2022-10-12T21:21:42.184Z,7.80
2022-10-12T21:24:10.273Z,7.81
2022-10-12T21:26:36.793Z,7.78
2022-10-12T21:29:03.341Z,7.76
2022-10-12T21:31:32.654Z,7.73
2022-10-12T21:34:02.166Z,7.71
2022-10-12T21:36:29.942Z,7.70
2022-10-12T21:38:56.965Z,7.72
2022-10-12T21:41:25.439Z,7.75
2022-10-12T21:43:52.793Z,7.81
2022-10-12T21:46:22.575Z,7.84
2022-10-12T21:48:49.903Z,7.82
2022-10-12T21:51:16.959Z,7.87
2022-10-12T21:53:43.486Z,7.90
2022-10-12T21:56:18.447Z,7.88
2022-10-12T21:58:45.883Z,7.88
2022-10-12T22:01:21.413Z,7.86
2022-10-12T22:03:56.519Z,7.86
2022-10-12T22:06:25.237Z,7.87
2022-10-12T22:08:54.963Z,7.86
2022-10-12T22:11:22.644Z,7.85
2022-10-12T22:13:49.555Z,7.84
2022-10-12T22:16:17.843Z,7.80
2022-10-12T22:18:45.348Z,7.79
2022-10-12T22:21:17.373Z,7.81
2022-10-12T22:23:45.100Z,7.79
2022-10-12T22:26:14.435Z,7.78
2022-10-12T22:28:48.493Z,7.80
2022-10-12T22:31:17.059Z,7.78
2022-10-12T22:33:43.899Z,7.71
2022-10-12T22:36:11.874Z,7.70
2022-10-12T22:38:38.889Z,7.64
2022-10-12T22:41:13.269Z,7.59
2022-10-12T22:43:46.724Z,7.54
2022-10-12T22:46:13.249Z,7.51
2022-10-12T22:48:40.108Z,7.51
2022-10-12T22:51:08.539Z,7.51
2022-10-12T22:53:36.101Z,7.48
2022-10-12T22:56:05.931Z,7.46
2022-10-12T22:58:33.137Z,7.47
2022-10-12T23:01:09.656Z,7.49
2022-10-12T23:03:36.834Z,7.41
2022-10-12T23:06:10.238Z,7.40
2022-10-12T23:08:37.458Z,7.40
2022-10-12T23:11:05.336Z,7.37
2022-10-12T23:13:34.411Z,7.36
2022-10-12T23:16:12.116Z,7.35
2022-10-12T23:18:39.269Z,7.33
2022-10-12T23:21:08.430Z,7.31
2022-10-12T23:23:36.132Z,7.29
2022-10-12T23:26:07.509Z,7.27
2022-10-12T23:28:34.310Z,7.26
2022-10-12T23:31:05.454Z,7.21
2022-10-12T23:33:32.216Z,7.19
2022-10-12T23:36:01.748Z,7.16
2022-10-12T23:38:30.018Z,7.17
2022-10-12T23:40:56.818Z,7.15
2022-10-12T23:43:23.645Z,7.12
2022-10-12T23:45:50.463Z,7.14
2022-10-12T23:48:16.902Z,7.13
2022-10-12T23:50:46.739Z,7.15
2022-10-12T23:53:13.854Z,7.16
2022-10-12T23:55:40.788Z,7.17
2022-10-12T23:58:07.259Z,7.17
